Time;durP1;ratioP1;P1;durP2;ratioP2;P2;SDS_P1;SDS_P2;PMS_P1;PMS_P2;Temp;Humidity;BMP_temperature;BMP_pressure;BME280_temperature;BME280_humidity;BME280_pressure;Samples;Min_cycle;Max_cycle;Signal;HPM_P1;HPM_P2
2022/04/29 00:02:14;;;;;;;4.13;1.40;;;;;;;;;;5016635;28;21332;-64
2022/04/29 00:04:42;;;;;;;6.20;1.50;;;;;;;;;;5016791;28;20041;-64
2022/04/29 00:07:09;;;;;;;3.17;1.13;;;;;;;;;;5017310;28;20036;-64
2022/04/29 00:09:36;;;;;;;5.97;1.35;;;;;;;;;;5016925;28;20041;-64
2022/04/29 00:12:04;;;;;;;3.95;1.48;;;;;;;;;;5017769;28;20038;-63
2022/04/29 00:14:31;;;;;;;3.42;1.33;;;;;;;;;;5015640;28;20743;-66
2022/04/29 00:16:58;;;;;;;3.90;1.30;;;;;;;;;;5016555;28;20045;-67
2022/04/29 00:19:25;;;;;;;6.35;1.40;;;;;;;;;;5016131;28;20041;-66
2022/04/29 00:21:52;;;;;;;3.78;1.42;;;;;;;;;;5017636;28;20223;-67
2022/04/29 00:24:18;;;;;;;8.27;1.25;;;;;;;;;;5037073;28;20041;-63
2022/04/29 00:26:45;;;;;;;3.08;1.10;;;;;;;;;;5035161;28;20036;-65
2022/04/29 00:29:12;;;;;;;3.25;1.10;;;;;;;;;;5035026;28;20405;-64
2022/04/29 00:31:39;;;;;;;4.35;1.23;;;;;;;;;;5035850;28;20037;-65
2022/04/29 00:34:05;;;;;;;3.00;1.10;;;;;;;;;;5034624;28;20053;-63
2022/04/29 00:36:32;;;;;;;3.33;1.20;;;;;;;;;;5034941;28;20378;-64
2022/04/29 00:38:59;;;;;;;3.22;1.10;;;;;;;;;;5036448;28;21851;-64
2022/04/29 00:41:26;;;;;;;4.03;1.30;;;;;;;;;;5035423;28;20063;-65
2022/04/29 00:44:08;;;;;;;4.78;1.23;;;;;;;;;;5037134;28;20040;-65
2022/04/29 00:46:36;;;;;;;4.17;1.43;;;;;;;;;;5036551;28;20029;-64
2022/04/29 00:49:04;;;;;;;5.03;1.17;;;;;;;;;;5037228;28;20290;-65
2022/04/29 00:51:31;;;;;;;3.10;1.00;;;;;;;;;;5034986;28;20940;-65
2022/04/29 00:53:58;;;;;;;3.70;1.33;;;;;;;;;;5037591;28;20087;-65
2022/04/29 00:56:27;;;;;;;3.30;1.10;;;;;;;;;;5035656;28;20508;-65
2022/04/29 00:59:01;;;;;;;4.93;1.48;;;;;;;;;;5035658;28;20092;-64
2022/04/29 01:01:29;;;;;;;9.93;1.35;;;;;;;;;;5016677;28;20051;-65
2022/04/29 01:03:56;;;;;;;4.80;1.30;;;;;;;;;;5036427;28;20029;-63
2022/04/29 01:06:25;;;;;;;2.78;0.93;;;;;;;;;;5035588;28;20041;-63
2022/04/29 01:08:52;;;;;;;3.97;1.30;;;;;;;;;;5035455;28;20406;-63
2022/04/29 01:11:25;;;;;;;7.05;1.20;;;;;;;;;;5039988;28;21384;-65
2022/04/29 01:13:52;;;;;;;;;;;;;;;;;;5038503;28;20048;-65
2022/04/29 01:16:19;;;;;;;7.00;1.33;;;;;;;;;;5039007;28;19916;-64
2022/04/29 01:18:46;;;;;;;4.05;1.40;;;;;;;;;;5038944;28;20075;-65
2022/04/29 01:21:13;;;;;;;4.03;1.10;;;;;;;;;;5040462;28;20045;-64
2022/04/29 01:23:41;;;;;;;6.35;1.40;;;;;;;;;;5039162;28;20053;-64
2022/04/29 01:26:09;;;;;;;8.23;1.52;;;;;;;;;;5040207;28;20059;-64
2022/04/29 01:28:36;;;;;;;4.32;1.23;;;;;;;;;;5038896;28;20068;-64
2022/04/29 01:31:03;;;;;;;6.60;1.40;;;;;;;;;;5039715;28;20029;-64
2022/04/29 01:33:32;;;;;;;5.75;1.45;;;;;;;;;;5038644;28;20044;-65
2022/04/29 01:35:59;;;;;;;3.35;1.15;;;;;;;;;;5039258;28;20045;-68
2022/04/29 01:38:25;;;;;;;3.42;1.27;;;;;;;;;;5039378;28;20052;-65
2022/04/29 01:40:52;;;;;;;7.55;1.50;;;;;;;;;;5039676;28;20059;-67
2022/04/29 01:43:19;;;;;;;4.28;1.48;;;;;;;;;;5039642;28;20041;-64
2022/04/29 01:45:45;;;;;;;4.00;1.27;;;;;;;;;;5038753;28;20045;-65
2022/04/29 01:48:12;;;;;;;3.40;1.20;;;;;;;;;;5039509;28;20045;-64
2022/04/29 01:50:39;;;;;;;3.50;1.20;;;;;;;;;;5039769;28;20492;-64
2022/04/29 01:53:05;;;;;;;4.07;1.30;;;;;;;;;;5039563;28;20041;-64
2022/04/29 01:55:32;;;;;;;3.45;1.10;;;;;;;;;;5038729;28;20044;-65
2022/04/29 01:57:59;;;;;;;5.30;1.27;;;;;;;;;;5039211;28;20041;-64
2022/04/29 02:00:26;;;;;;;7.97;1.42;;;;;;;;;;5038602;28;20061;-65
2022/04/29 02:02:55;;;;;;;3.22;1.25;;;;;;;;;;5039727;28;20060;-64
2022/04/29 02:05:22;;;;;;;6.97;1.42;;;;;;;;;;5038762;28;20597;-66
2022/04/29 02:07:49;;;;;;;5.53;1.30;;;;;;;;;;5040388;28;20736;-67
2022/04/29 02:10:16;;;;;;;4.95;1.67;;;;;;;;;;5040501;28;20491;-66
2022/04/29 02:12:43;;;;;;;8.80;1.70;;;;;;;;;;5039506;28;20052;-64
2022/04/29 02:15:10;;;;;;;4.25;1.40;;;;;;;;;;5039956;28;20438;-63
2022/04/29 02:17:37;;;;;;;5.63;1.40;;;;;;;;;;5039477;28;20075;-63
2022/04/29 02:20:04;;;;;;;5.78;1.25;;;;;;;;;;5040712;28;20072;-65
2022/04/29 02:22:30;;;;;;;5.88;1.60;;;;;;;;;;5039081;28;20214;-64
2022/04/29 02:24:58;;;;;;;7.20;1.70;;;;;;;;;;5039264;28;20068;-63
2022/04/29 02:27:25;;;;;;;3.78;1.40;;;;;;;;;;5038120;28;20401;-63
2022/04/29 02:29:52;;;;;;;5.35;1.70;;;;;;;;;;5038485;28;20130;-63
2022/04/29 02:32:19;;;;;;;5.63;1.67;;;;;;;;;;5036868;28;20036;-63
2022/04/29 02:34:45;;;;;;;3.08;1.10;;;;;;;;;;5038010;28;20033;-63
2022/04/29 02:37:12;;;;;;;4.22;1.20;;;;;;;;;;5038770;28;20041;-64
2022/04/29 02:39:39;;;;;;;7.97;1.85;;;;;;;;;;5039227;28;20033;-63
2022/04/29 02:42:07;;;;;;;5.80;1.45;;;;;;;;;;5021764;28;20045;-63
2022/04/29 02:44:34;;;;;;;3.75;1.60;;;;;;;;;;5038985;28;20091;-63
2022/04/29 02:47:07;;;;;;;3.33;1.27;;;;;;;;;;5038514;28;20033;-63
2022/04/29 02:49:34;;;;;;;9.38;1.55;;;;;;;;;;5037876;28;20588;-63
2022/04/29 02:52:00;;;;;;;3.58;1.40;;;;;;;;;;5020835;28;20115;-63
2022/04/29 02:54:27;;;;;;;4.38;1.40;;;;;;;;;;5037777;28;20056;-63
2022/04/29 02:56:54;;;;;;;9.07;2.40;;;;;;;;;;5038401;28;20497;-63
2022/04/29 02:59:21;;;;;;;11.85;2.80;;;;;;;;;;5035334;28;20055;-63
2022/04/29 03:01:48;;;;;;;5.20;2.00;;;;;;;;;;5037645;28;20179;-64
2022/04/29 03:04:15;;;;;;;6.40;1.98;;;;;;;;;;5039142;28;20049;-64
2022/04/29 03:06:42;;;;;;;6.10;1.50;;;;;;;;;;5036806;28;20045;-64
2022/04/29 03:09:09;;;;;;;4.60;1.65;;;;;;;;;;5038037;28;20098;-64
2022/04/29 03:11:36;;;;;;;5.85;1.75;;;;;;;;;;5037201;28;20044;-64
2022/04/29 03:14:03;;;;;;;9.82;1.70;;;;;;;;;;5038303;28;20106;-63
2022/04/29 03:16:30;;;;;;;4.72;1.60;;;;;;;;;;5037399;28;20041;-63
2022/04/29 03:18:57;;;;;;;7.20;1.67;;;;;;;;;;5037357;28;20059;-64
2022/04/29 03:21:24;;;;;;;12.32;2.13;;;;;;;;;;5038363;28;20123;-64
2022/04/29 03:23:51;;;;;;;3.67;1.38;;;;;;;;;;5039017;28;20129;-64
2022/04/29 03:26:18;;;;;;;4.20;1.30;;;;;;;;;;5038162;28;20876;-64
2022/04/29 03:28:44;;;;;;;3.55;1.50;;;;;;;;;;5038277;28;20041;-63
2022/04/29 03:31:11;;;;;;;4.85;1.50;;;;;;;;;;5039036;28;20504;-64
2022/04/29 03:33:38;;;;;;;3.55;1.50;;;;;;;;;;5035024;28;20032;-64
2022/04/29 03:36:05;;;;;;;3.95;1.60;;;;;;;;;;5037925;28;20410;-64
2022/04/29 03:38:32;;;;;;;6.18;1.75;;;;;;;;;;5037473;28;20039;-64
2022/04/29 03:40:58;;;;;;;3.88;1.52;;;;;;;;;;5013682;28;20544;-64
2022/04/29 03:43:25;;;;;;;6.25;1.77;;;;;;;;;;5038141;28;20037;-64
2022/04/29 03:45:52;;;;;;;4.47;1.70;;;;;;;;;;5037546;28;20128;-64
2022/04/29 03:48:18;;;;;;;7.57;1.80;;;;;;;;;;5035666;28;20039;-66
2022/04/29 03:50:45;;;;;;;7.40;1.77;;;;;;;;;;5037538;28;20039;-64
2022/04/29 03:53:12;;;;;;;11.25;2.10;;;;;;;;;;5036517;28;20041;-64
2022/04/29 03:55:39;;;;;;;8.52;2.15;;;;;;;;;;5035418;28;20090;-64
2022/04/29 03:58:06;;;;;;;19.70;2.67;;;;;;;;;;5038178;28;20045;-64
2022/04/29 04:00:34;;;;;;;19.70;2.03;;;;;;;;;;5018895;28;20037;-63
2022/04/29 04:03:07;;;;;;;5.03;1.50;;;;;;;;;;5036272;28;20206;-63
2022/04/29 04:05:34;;;;;;;10.90;2.30;;;;;;;;;;5036257;28;20048;-63
2022/04/29 04:08:01;;;;;;;7.28;1.58;;;;;;;;;;5037521;28;20045;-64
2022/04/29 04:10:28;;;;;;;4.43;1.48;;;;;;;;;;5036430;28;20056;-64
2022/04/29 04:12:54;;;;;;;7.03;1.60;;;;;;;;;;5037183;28;20616;-64
2022/04/29 04:15:23;;;;;;;7.90;1.70;;;;;;;;;;5035758;28;20125;-64
2022/04/29 04:17:50;;;;;;;6.82;1.88;;;;;;;;;;5037362;28;20147;-64
2022/04/29 04:20:17;;;;;;;4.95;1.80;;;;;;;;;;5038107;28;20036;-64
2022/04/29 04:22:44;;;;;;;6.28;1.33;;;;;;;;;;5037326;28;20430;-63
2022/04/29 04:25:12;;;;;;;12.27;1.90;;;;;;;;;;5038110;28;20056;-64
2022/04/29 04:27:39;;;;;;;6.93;1.83;;;;;;;;;;5037746;28;20485;-64
2022/04/29 04:30:06;;;;;;;6.93;1.65;;;;;;;;;;5037794;28;20033;-64
2022/04/29 04:32:37;;;;;;;7.35;1.60;;;;;;;;;;5037343;28;20501;-64
2022/04/29 04:35:04;;;;;;;8.80;1.33;;;;;;;;;;5036547;28;20065;-64
2022/04/29 04:37:34;;;;;;;6.38;1.30;;;;;;;;;;5036666;28;20155;-63
2022/04/29 04:40:03;;;;;;;4.85;1.27;;;;;;;;;;5036930;28;21801;-64
2022/04/29 04:42:29;;;;;;;5.13;1.30;;;;;;;;;;5036494;28;20070;-64
2022/04/29 04:44:59;;;;;;;7.93;1.45;;;;;;;;;;5039257;28;20414;-64
2022/04/29 04:47:26;;;;;;;5.40;1.52;;;;;;;;;;5030950;28;20053;-63
2022/04/29 04:49:53;;;;;;;4.43;1.30;;;;;;;;;;5041032;28;20517;-64
2022/04/29 04:52:19;;;;;;;4.68;1.30;;;;;;;;;;5039682;28;20132;-64
2022/04/29 04:54:46;;;;;;;4.03;1.25;;;;;;;;;;5039524;28;20112;-64
2022/04/29 04:57:13;;;;;;;2.95;1.00;;;;;;;;;;5040416;28;20048;-64
2022/04/29 04:59:39;;;;;;;16.05;1.60;;;;;;;;;;5039629;28;20144;-65
2022/04/29 05:02:06;;;;;;;5.40;1.42;;;;;;;;;;5039478;28;20049;-64
2022/04/29 05:04:33;;;;;;;3.10;1.13;;;;;;;;;;5039530;28;20059;-64
2022/04/29 05:07:00;;;;;;;7.38;1.30;;;;;;;;;;5040657;28;20136;-64
2022/04/29 05:09:26;;;;;;;5.10;1.35;;;;;;;;;;5039728;28;20041;-64
2022/04/29 05:11:53;;;;;;;3.70;1.08;;;;;;;;;;5040123;28;20045;-64
2022/04/29 05:14:20;;;;;;;4.65;1.50;;;;;;;;;;5038515;28;20036;-63
2022/04/29 05:16:46;;;;;;;6.97;1.88;;;;;;;;;;5040700;28;20105;-62
2022/04/29 05:19:13;;;;;;;11.38;2.78;;;;;;;;;;5040121;28;20033;-64
2022/04/29 05:21:40;;;;;;;7.55;1.60;;;;;;;;;;5038276;28;20063;-63
2022/04/29 05:24:07;;;;;;;2.88;1.10;;;;;;;;;;5040327;28;20045;-65
2022/04/29 05:26:34;;;;;;;5.80;1.70;;;;;;;;;;5038967;28;20049;-63
2022/04/29 05:29:00;;;;;;;5.18;1.38;;;;;;;;;;5040649;28;20720;-64
2022/04/29 05:31:27;;;;;;;4.28;1.80;;;;;;;;;;5039152;28;20083;-64
2022/04/29 05:33:55;;;;;;;4.78;1.90;;;;;;;;;;5040764;28;20041;-64
2022/04/29 05:36:22;;;;;;;4.25;1.63;;;;;;;;;;5039883;28;20150;-63
2022/04/29 05:44:19;;;;;;;2.58;1.05;;;;;;;;;;5039376;28;20107;-64
2022/04/29 05:46:46;;;;;;;3.42;1.20;;;;;;;;;;5039648;28;20102;-64
2022/04/29 05:49:13;;;;;;;3.63;1.17;;;;;;;;;;5040380;28;20608;-64
2022/04/29 05:51:39;;;;;;;4.55;1.27;;;;;;;;;;5039513;28;20470;-63
2022/04/29 05:54:06;;;;;;;3.40;1.10;;;;;;;;;;5039953;28;20033;-64
2022/04/29 05:56:33;;;;;;;3.47;1.10;;;;;;;;;;5039147;28;20045;-64
2022/04/29 05:58:59;;;;;;;3.05;1.10;;;;;;;;;;5040669;28;20052;-64
2022/04/29 06:01:26;;;;;;;3.25;1.17;;;;;;;;;;5038782;28;20037;-65
2022/04/29 06:03:53;;;;;;;4.15;1.10;;;;;;;;;;5039191;28;20045;-63
2022/04/29 06:06:20;;;;;;;5.25;1.40;;;;;;;;;;5039094;28;20045;-64
2022/04/29 06:08:47;;;;;;;4.15;1.00;;;;;;;;;;5041377;28;20028;-64
2022/04/29 06:11:14;;;;;;;4.05;1.30;;;;;;;;;;5040727;28;20037;-64
2022/04/29 06:13:42;;;;;;;5.20;1.02;;;;;;;;;;5039685;28;20071;-64
2022/04/29 06:16:10;;;;;;;3.22;1.02;;;;;;;;;;5039420;28;20033;-64
2022/04/29 06:18:37;;;;;;;4.47;1.33;;;;;;;;;;5020794;28;20048;-64
2022/04/29 06:21:04;;;;;;;7.50;0.98;;;;;;;;;;5039268;28;20041;-64
2022/04/29 06:23:31;;;;;;;4.22;1.20;;;;;;;;;;5024625;28;20053;-64
2022/04/29 06:25:58;;;;;;;8.13;1.45;;;;;;;;;;5019343;28;20049;-64
2022/04/29 06:28:24;;;;;;;5.60;1.30;;;;;;;;;;5019516;28;20045;-65
2022/04/29 06:30:51;;;;;;;8.70;1.42;;;;;;;;;;5019368;28;20038;-64
2022/04/29 06:33:18;;;;;;;3.60;1.20;;;;;;;;;;5019522;28;20033;-64
2022/04/29 06:35:44;;;;;;;5.30;0.90;;;;;;;;;;5019023;28;20057;-64
2022/04/29 06:38:12;;;;;;;5.78;1.27;;;;;;;;;;5019939;28;20033;-64
2022/04/29 06:40:38;;;;;;;3.35;0.82;;;;;;;;;;5018828;28;20116;-64
2022/04/29 06:43:05;;;;;;;3.30;0.90;;;;;;;;;;5019055;28;20041;-64
2022/04/29 06:45:32;;;;;;;4.10;1.10;;;;;;;;;;5018422;28;20053;-64
2022/04/29 06:47:58;;;;;;;4.05;1.00;;;;;;;;;;5020136;28;20152;-64
2022/04/29 06:50:25;;;;;;;2.83;1.02;;;;;;;;;;5018379;28;20119;-64
2022/04/29 06:52:52;;;;;;;3.20;1.00;;;;;;;;;;5018404;28;20060;-64
2022/04/29 06:55:19;;;;;;;6.80;1.15;;;;;;;;;;5018594;28;20041;-64
2022/04/29 06:57:46;;;;;;;2.80;0.95;;;;;;;;;;5018484;28;20064;-64
2022/04/29 07:00:14;;;;;;;2.70;0.90;;;;;;;;;;5018897;28;20057;-64
2022/04/29 07:02:41;;;;;;;2.50;0.90;;;;;;;;;;5012776;28;20045;-64
2022/04/29 07:05:08;;;;;;;2.78;0.93;;;;;;;;;;5018624;28;20049;-64
2022/04/29 07:07:35;;;;;;;4.40;1.10;;;;;;;;;;5017944;28;20056;-65
2022/04/29 07:10:02;;;;;;;6.40;0.98;;;;;;;;;;5019197;28;20041;-64
2022/04/29 07:12:29;;;;;;;3.03;0.88;;;;;;;;;;4999882;28;20033;-64
2022/04/29 07:14:55;;;;;;;2.65;0.90;;;;;;;;;;5019298;28;20402;-64
2022/04/29 07:17:23;;;;;;;2.67;0.90;;;;;;;;;;5017333;28;20060;-64
2022/04/29 07:19:53;;;;;;;2.45;0.75;;;;;;;;;;5018750;28;20240;-64
2022/04/29 07:22:20;;;;;;;2.30;0.75;;;;;;;;;;5021586;28;20080;-64
2022/04/29 07:24:47;;;;;;;2.92;0.80;;;;;;;;;;5038541;28;20052;-64
2022/04/29 07:27:14;;;;;;;2.80;0.93;;;;;;;;;;5039174;28;20931;-64
2022/04/29 07:29:40;;;;;;;2.70;1.00;;;;;;;;;;5011486;28;20048;-64
2022/04/29 07:32:07;;;;;;;2.50;0.88;;;;;;;;;;5038404;28;20528;-63
2022/04/29 07:42:50;;;;;;;3.00;0.90;;;;;;;;;;5037015;28;20259;-63
2022/04/29 07:45:17;;;;;;;9.02;1.00;;;;;;;;;;5037268;28;20063;-63
2022/04/29 07:47:44;;;;;;;2.85;1.00;;;;;;;;;;5037499;28;20064;-63
2022/04/29 07:50:11;;;;;;;3.72;1.25;;;;;;;;;;5037187;28;20410;-63
2022/04/29 07:52:38;;;;;;;2.97;1.10;;;;;;;;;;5036750;28;20052;-63
2022/04/29 07:55:06;;;;;;;2.45;1.00;;;;;;;;;;5037988;28;20148;-63
2022/04/29 07:57:32;;;;;;;3.35;1.10;;;;;;;;;;5037252;28;20076;-63
2022/04/29 07:59:59;;;;;;;3.42;1.23;;;;;;;;;;5037621;28;20336;-64
2022/04/29 08:02:26;;;;;;;4.15;1.20;;;;;;;;;;5037403;28;20053;-63
2022/04/29 08:04:52;;;;;;;2.95;0.95;;;;;;;;;;5037087;28;20414;-64
2022/04/29 08:07:19;;;;;;;5.55;1.00;;;;;;;;;;5038018;28;20441;-62
2022/04/29 08:09:46;;;;;;;2.95;1.00;;;;;;;;;;5039032;28;20037;-62
2022/04/29 08:12:13;;;;;;;2.85;0.73;;;;;;;;;;5037951;28;20071;-62
2022/04/29 08:14:40;;;;;;;3.20;1.20;;;;;;;;;;5036841;28;20079;-62
2022/04/29 08:17:07;;;;;;;2.60;0.82;;;;;;;;;;5039029;28;20353;-62
2022/04/29 08:19:34;;;;;;;2.58;0.82;;;;;;;;;;5035856;28;20090;-63
2022/04/29 08:22:02;;;;;;;2.80;0.90;;;;;;;;;;5035524;28;20052;-63
2022/04/29 08:24:29;;;;;;;2.70;0.82;;;;;;;;;;5016136;28;20046;-63
2022/04/29 08:26:56;;;;;;;2.58;0.93;;;;;;;;;;5000201;28;20088;-63
2022/04/29 08:29:22;;;;;;;4.15;0.90;;;;;;;;;;5017042;28;20044;-63
2022/04/29 08:31:49;;;;;;;3.35;1.00;;;;;;;;;;5017366;28;20033;-62
2022/04/29 08:34:17;;;;;;;2.88;0.80;;;;;;;;;;5017282;28;20049;-62
2022/04/29 08:36:44;;;;;;;3.38;0.90;;;;;;;;;;5016047;28;20037;-63
2022/04/29 08:39:11;;;;;;;2.75;0.90;;;;;;;;;;5017647;28;20041;-63
2022/04/29 08:41:39;;;;;;;2.60;0.98;;;;;;;;;;5016556;28;20041;-62
2022/04/29 08:44:12;;;;;;;2.80;0.98;;;;;;;;;;5017482;28;20470;-63
2022/04/29 08:46:42;;;;;;;3.45;0.82;;;;;;;;;;5017024;28;20083;-62
2022/04/29 08:49:10;;;;;;;3.38;0.90;;;;;;;;;;5017396;28;20041;-62
2022/04/29 08:51:38;;;;;;;3.38;0.95;;;;;;;;;;5016091;28;20042;-63
2022/04/29 08:54:05;;;;;;;2.72;0.90;;;;;;;;;;5018054;28;20111;-63
2022/04/29 08:59:21;;;;;;;2.88;0.88;;;;;;;;;;5017427;28;20052;-62
2022/04/29 09:01:47;;;;;;;5.68;0.80;;;;;;;;;;5017576;28;20120;-62
2022/04/29 09:04:14;;;;;;;3.33;1.08;;;;;;;;;;5017098;28;20053;-62
2022/04/29 09:06:51;;;;;;;2.92;0.85;;;;;;;;;;5017051;28;20122;-62
2022/04/29 09:09:21;;;;;;;2.60;0.88;;;;;;;;;;5018221;28;20073;-62
2022/04/29 09:11:48;;;;;;;3.25;1.02;;;;;;;;;;5016971;28;20048;-63
2022/04/29 09:14:24;;;;;;;3.67;1.10;;;;;;;;;;5017413;28;20056;-62
2022/04/29 09:16:51;;;;;;;3.05;1.00;;;;;;;;;;5017513;28;20042;-62
2022/04/29 09:19:31;;;;;;;2.42;0.85;;;;;;;;;;5017112;28;20060;-63
2022/04/29 09:22:06;;;;;;;3.40;0.93;;;;;;;;;;5017821;28;20041;-63
2022/04/29 09:24:32;;;;;;;3.63;1.00;;;;;;;;;;5035952;28;21826;-63
2022/04/29 09:27:00;;;;;;;2.70;0.80;;;;;;;;;;5037144;28;20047;-65
2022/04/29 09:29:29;;;;;;;2.67;0.90;;;;;;;;;;5037020;28;20686;-63
2022/04/29 09:31:58;;;;;;;4.00;0.90;;;;;;;;;;5040889;28;20045;-64
2022/04/29 09:34:25;;;;;;;2.70;0.90;;;;;;;;;;5040563;28;20052;-63
2022/04/29 09:36:52;;;;;;;3.88;1.13;;;;;;;;;;5040332;28;20048;-64
2022/04/29 09:39:27;;;;;;;2.70;0.90;;;;;;;;;;5040480;28;20050;-63
2022/04/29 09:41:58;;;;;;;2.22;0.80;;;;;;;;;;5041033;28;20171;-64
2022/04/29 09:44:32;;;;;;;3.00;1.00;;;;;;;;;;5039961;28;20067;-63
2022/04/29 09:47:22;;;;;;;3.00;1.05;;;;;;;;;;5041524;28;20040;-63
2022/04/29 09:49:55;;;;;;;3.05;0.90;;;;;;;;;;5039292;28;20044;-63
2022/04/29 09:52:23;;;;;;;3.35;1.17;;;;;;;;;;5039498;28;20060;-63
2022/04/29 09:54:50;;;;;;;3.17;1.00;;;;;;;;;;5040265;28;20048;-62
2022/04/29 09:57:18;;;;;;;2.60;1.00;;;;;;;;;;5040916;28;20552;-63
2022/04/29 09:59:44;;;;;;;3.55;1.10;;;;;;;;;;5022440;28;20102;-62
2022/04/29 10:02:12;;;;;;;3.50;1.30;;;;;;;;;;5039684;28;20041;-63
2022/04/29 10:04:40;;;;;;;5.35;1.05;;;;;;;;;;5038228;28;20935;-63
2022/04/29 10:07:09;;;;;;;2.95;0.88;;;;;;;;;;5040020;28;20461;-63
2022/04/29 10:09:38;;;;;;;2.55;0.80;;;;;;;;;;5039210;28;20098;-63
2022/04/29 10:12:06;;;;;;;2.78;0.82;;;;;;;;;;5039900;28;20104;-63
2022/04/29 10:14:36;;;;;;;3.47;0.88;;;;;;;;;;5038903;28;20507;-63
2022/04/29 10:22:41;;;;;;;4.05;0.90;;;;;;;;;;5031679;28;20092;-63
2022/04/29 10:25:09;;;;;;;3.30;0.82;;;;;;;;;;5019587;28;20046;-63
2022/04/29 10:27:38;;;;;;;2.70;0.80;;;;;;;;;;5020664;28;20045;-63
2022/04/29 10:30:05;;;;;;;2.72;0.77;;;;;;;;;;5019661;28;20049;-63
2022/04/29 10:32:52;;;;;;;2.28;0.73;;;;;;;;;;5002278;28;20065;-62
2022/04/29 10:35:49;;;;;;;2.40;0.80;;;;;;;;;;5020014;28;20052;-63
2022/04/29 10:38:16;;;;;;;2.08;0.65;;;;;;;;;;5018020;28;20160;-63
2022/04/29 10:40:44;;;;;;;2.97;0.90;;;;;;;;;;5018382;28;20061;-63
2022/04/29 10:43:13;;;;;;;2.75;0.80;;;;;;;;;;5018544;28;20084;-63
2022/04/29 10:46:15;;;;;;;4.05;0.93;;;;;;;;;;5019226;28;20053;-63
2022/04/29 10:48:42;;;;;;;2.05;0.75;;;;;;;;;;4958405;28;20129;-63
2022/04/29 10:51:10;;;;;;;2.60;0.80;;;;;;;;;;5008430;28;20049;-63
2022/04/29 10:53:43;;;;;;;2.08;0.75;;;;;;;;;;5018023;28;20145;-63
2022/04/29 10:56:09;;;;;;;;;;;;;;;;;;5019739;28;20045;-63
2022/04/29 10:58:45;;;;;;;3.72;0.90;;;;;;;;;;5018133;28;19917;-64
2022/04/29 11:01:15;;;;;;;3.78;0.90;;;;;;;;;;5018958;28;20033;-63
2022/04/29 11:03:45;;;;;;;5.13;1.10;;;;;;;;;;5018428;28;20390;-64
2022/04/29 11:06:15;;;;;;;2.75;0.80;;;;;;;;;;5019217;28;20549;-63
2022/04/29 11:08:42;;;;;;;6.20;1.00;;;;;;;;;;5018140;28;20417;-63
2022/04/29 11:11:09;;;;;;;2.50;0.90;;;;;;;;;;5018811;28;20037;-64
2022/04/29 11:13:37;;;;;;;3.40;0.90;;;;;;;;;;5017443;28;20037;-63
2022/04/29 11:16:15;;;;;;;3.67;1.00;;;;;;;;;;5018723;28;20041;-63
2022/04/29 11:18:43;;;;;;;2.65;0.82;;;;;;;;;;5017996;28;20049;-63
2022/04/29 11:26:47;;;;;;;2.83;0.70;;;;;;;;;;5037522;28;20120;-63
2022/04/29 11:29:14;;;;;;;;;;;;;;;;;;5039166;28;20033;-62
2022/04/29 11:31:41;;;;;;;2.53;0.85;;;;;;;;;;5037494;28;20358;-64
2022/04/29 11:34:09;;;;;;;1.75;0.60;;;;;;;;;;5038224;28;20044;-63
2022/04/29 11:36:35;;;;;;;2.70;0.93;;;;;;;;;;5037280;28;20123;-64
2022/04/29 11:39:08;;;;;;;3.17;0.80;;;;;;;;;;5038572;28;20064;-64
2022/04/29 11:41:34;;;;;;;3.58;0.80;;;;;;;;;;5037281;28;20056;-64
2022/04/29 11:44:03;;;;;;;4.00;0.80;;;;;;;;;;5037859;28;20116;-63
2022/04/29 11:46:30;;;;;;;3.78;1.00;;;;;;;;;;5037638;28;20370;-63
2022/04/29 11:48:58;;;;;;;1.48;0.57;;;;;;;;;;5037600;28;20037;-63
2022/04/29 11:51:28;;;;;;;2.75;0.82;;;;;;;;;;5037777;28;20052;-63
2022/04/29 11:54:00;;;;;;;4.07;0.82;;;;;;;;;;5037917;28;20044;-63
2022/04/29 11:56:37;;;;;;;3.58;0.93;;;;;;;;;;5037221;28;20041;-64
2022/04/29 11:59:04;;;;;;;2.78;0.82;;;;;;;;;;5037863;28;20495;-62
2022/04/29 12:01:32;;;;;;;3.33;1.10;;;;;;;;;;5037126;28;20140;-62
2022/04/29 12:03:58;;;;;;;2.40;0.80;;;;;;;;;;5037287;28;20178;-62
2022/04/29 12:06:25;;;;;;;3.53;0.80;;;;;;;;;;5036946;28;20049;-62
2022/04/29 12:08:52;;;;;;;6.30;1.20;;;;;;;;;;5037737;28;20037;-62
2022/04/29 12:11:25;;;;;;;3.65;1.10;;;;;;;;;;5037099;28;20120;-64
2022/04/29 12:13:52;;;;;;;;;;;;;;;;;;5038743;28;20048;-63
2022/04/29 12:16:19;;;;;;;3.97;0.93;;;;;;;;;;5037894;28;20044;-64
2022/04/29 12:18:46;;;;;;;3.00;0.90;;;;;;;;;;5038526;28;20212;-62
2022/04/29 12:21:20;;;;;;;7.63;1.40;;;;;;;;;;5038224;28;20033;-62
2022/04/29 12:23:47;;;;;;;3.90;1.10;;;;;;;;;;5037148;28;20057;-62
2022/04/29 12:26:14;;;;;;;2.50;0.90;;;;;;;;;;5010456;28;20504;-62
2022/04/29 12:28:41;;;;;;;2.60;0.80;;;;;;;;;;5036025;28;20036;-63
2022/04/29 12:36:48;;;;;;;2.35;0.77;;;;;;;;;;5036468;28;20052;-63
2022/04/29 12:39:15;;;;;;;3.08;0.80;;;;;;;;;;5037504;28;20029;-63
2022/04/29 12:41:42;;;;;;;3.78;0.90;;;;;;;;;;5036287;28;20052;-63
2022/04/29 12:47:00;;;;;;;3.72;0.95;;;;;;;;;;5036647;28;20055;-63
2022/04/29 12:49:26;;;;;;;2.83;0.82;;;;;;;;;;5037149;28;20037;-63
2022/04/29 12:52:00;;;;;;;2.47;0.80;;;;;;;;;;5037207;28;20065;-63
2022/04/29 12:54:27;;;;;;;5.57;1.20;;;;;;;;;;5019266;28;20040;-63
2022/04/29 12:56:54;;;;;;;2.50;0.90;;;;;;;;;;5037161;28;20040;-64
2022/04/29 12:59:25;;;;;;;3.13;1.00;;;;;;;;;;5035625;28;20036;-63
2022/04/29 13:01:53;;;;;;;3.15;0.85;;;;;;;;;;5037389;28;20061;-62
2022/04/29 13:04:20;;;;;;;6.15;1.08;;;;;;;;;;5037561;28;20442;-63
2022/04/29 13:06:46;;;;;;;2.47;0.93;;;;;;;;;;5041438;28;20072;-64
2022/04/29 13:09:14;;;;;;;3.85;1.20;;;;;;;;;;5040389;28;20037;-64
2022/04/29 13:11:43;;;;;;;3.10;0.82;;;;;;;;;;5040057;28;20494;-63
2022/04/29 13:14:13;;;;;;;2.25;0.73;;;;;;;;;;5041348;28;20239;-63
2022/04/29 13:16:40;;;;;;;5.97;1.00;;;;;;;;;;5040299;28;20056;-64
2022/04/29 13:19:06;;;;;;;5.75;1.00;;;;;;;;;;5024115;28;20112;-63
2022/04/29 13:21:33;;;;;;;3.97;1.05;;;;;;;;;;5023913;28;20075;-64
2022/04/29 13:24:01;;;;;;;8.63;1.50;;;;;;;;;;5042671;28;20044;-65
2022/04/29 13:26:28;;;;;;;4.13;0.95;;;;;;;;;;5041612;28;20072;-64
2022/04/29 13:28:54;;;;;;;5.18;1.17;;;;;;;;;;5042927;28;20041;-64
2022/04/29 13:31:21;;;;;;;4.25;1.10;;;;;;;;;;5024401;28;20524;-63
2022/04/29 13:33:48;;;;;;;3.03;0.82;;;;;;;;;;5042867;28;20051;-64
2022/04/29 13:36:15;;;;;;;3.72;1.10;;;;;;;;;;5042142;28;20108;-67
2022/04/29 13:38:43;;;;;;;8.60;1.17;;;;;;;;;;5023508;28;20560;-64
2022/04/29 13:41:11;;;;;;;2.22;0.70;;;;;;;;;;5043116;28;20036;-65
2022/04/29 13:43:38;;;;;;;3.83;1.25;;;;;;;;;;5040849;28;20037;-63
2022/04/29 13:46:05;;;;;;;2.28;0.73;;;;;;;;;;5042179;28;20056;-63
2022/04/29 13:48:32;;;;;;;7.28;1.10;;;;;;;;;;5041198;28;20090;-64
2022/04/29 13:50:59;;;;;;;6.28;1.17;;;;;;;;;;5041141;28;20052;-63
2022/04/29 13:53:26;;;;;;;10.15;1.33;;;;;;;;;;5039918;28;20422;-64
2022/04/29 13:55:54;;;;;;;6.90;1.27;;;;;;;;;;5040823;28;20049;-63
2022/04/29 13:58:22;;;;;;;3.42;1.00;;;;;;;;;;5039795;28;20202;-64
2022/04/29 14:00:49;;;;;;;8.15;1.00;;;;;;;;;;5040500;28;20041;-64
2022/04/29 14:03:16;;;;;;;3.42;1.00;;;;;;;;;;5039521;28;20530;-63
2022/04/29 14:05:43;;;;;;;4.15;1.20;;;;;;;;;;5040450;28;20056;-64
2022/04/29 14:08:10;;;;;;;3.42;1.48;;;;;;;;;;5039943;28;20049;-64
2022/04/29 14:10:37;;;;;;;3.22;0.98;;;;;;;;;;5039898;28;20049;-63
2022/04/29 14:13:07;;;;;;;4.30;1.25;;;;;;;;;;5040169;28;20139;-64
2022/04/29 14:15:34;;;;;;;3.42;1.40;;;;;;;;;;5041399;28;20098;-64
2022/04/29 14:18:01;;;;;;;5.53;1.10;;;;;;;;;;5040120;28;20487;-62
2022/04/29 14:20:29;;;;;;;2.05;0.70;;;;;;;;;;5013572;28;20037;-63
2022/04/29 14:22:56;;;;;;;3.70;1.40;;;;;;;;;;5040527;28;20152;-64
2022/04/29 14:25:22;;;;;;;4.45;1.00;;;;;;;;;;5040258;28;20160;-64
2022/04/29 14:27:49;;;;;;;2.30;0.80;;;;;;;;;;5039849;28;20233;-64
2022/04/29 14:30:16;;;;;;;3.72;1.08;;;;;;;;;;5039982;28;20056;-64
2022/04/29 14:32:44;;;;;;;3.97;0.93;;;;;;;;;;5040735;28;20567;-64
2022/04/29 14:35:11;;;;;;;3.28;1.10;;;;;;;;;;5041118;28;20626;-65
2022/04/29 14:37:38;;;;;;;6.43;1.55;;;;;;;;;;5022556;28;20065;-64
2022/04/29 14:40:09;;;;;;;3.10;1.33;;;;;;;;;;5043384;28;20641;-64
2022/04/29 14:42:36;;;;;;;3.25;1.20;;;;;;;;;;5040922;28;20064;-65
2022/04/29 14:45:03;;;;;;;5.75;1.40;;;;;;;;;;5040694;28;20045;-65
2022/04/29 14:47:31;;;;;;;8.43;1.85;;;;;;;;;;5038948;28;20056;-65
2022/04/29 14:49:58;;;;;;;5.25;1.58;;;;;;;;;;5040870;28;20397;-64
2022/04/29 14:52:25;;;;;;;3.78;1.00;;;;;;;;;;5039380;28;20119;-63
2022/04/29 14:54:52;;;;;;;5.68;1.27;;;;;;;;;;5039847;28;20510;-64
2022/04/29 14:57:19;;;;;;;6.65;1.63;;;;;;;;;;5038933;28;20052;-65
2022/04/29 14:59:45;;;;;;;3.85;1.40;;;;;;;;;;5039921;28;20041;-64
2022/04/29 15:02:12;;;;;;;2.30;0.93;;;;;;;;;;5039248;28;20041;-64
2022/04/29 15:04:41;;;;;;;3.00;1.30;;;;;;;;;;5038727;28;21972;-64
2022/04/29 15:07:08;;;;;;;4.45;1.50;;;;;;;;;;5038514;28;20066;-64
2022/04/29 15:17:50;;;;;;;8.45;1.80;;;;;;;;;;5038998;28;20685;-63
2022/04/29 15:20:17;;;;;;;3.70;1.45;;;;;;;;;;5039471;28;20048;-63
2022/04/29 15:22:44;;;;;;;3.70;1.35;;;;;;;;;;5038233;28;20052;-63
2022/04/29 15:25:11;;;;;;;3.22;1.42;;;;;;;;;;5038709;28;20060;-63
2022/04/29 15:27:37;;;;;;;3.15;1.10;;;;;;;;;;5018837;28;20631;-64
2022/04/29 15:30:05;;;;;;;4.18;1.25;;;;;;;;;;5039758;28;20048;-63
2022/04/29 15:32:32;;;;;;;4.72;1.52;;;;;;;;;;5037909;28;20080;-64